RAIN

Not for real navigation. The accuracy of this data is not assured See disclaimer for more information



ICAO NAME COUNTRY WIND Kt GUST Kt VIS m TEMP/DEW C BARO METAR
LYUZ 5 0 600 11/11 30.24 LYUZ 262130Z AUTO 06005KT 040V100 0600 FG -SHRA VV001 11/11 Q1024
PAYA YAKUTAT AIRPORT AK United States 11 18 1600 11/10 29.59 PAYA 262050Z AUTO 08011G18KT 1SM -RA BR VV009 11/10 A2959 RMK TS ZAN
KHYI San Marcos, San Marcos Municip TX United States 7 0 1600 0/0 29.89 KHYI 262130Z 11007KT 1SM RA SCT006 BKN018 OVC040 A2989 RMK AO2 P0024 RVRNO $
KIWD Ironwood, Gogebic-Iron County MI United States 9 0 1600 15/14 29.89 KIWD 262141Z AUTO 28009KT 1 0.75SM BR OVC007 15/14 A2989 RMK AO2 VIS 1V5 RAE17 CIG 003V010 P0001
PASI SITKA AIRPORT AK United States 4 0 1600 16/15 29.79 PASI 262138Z 17004KT 1 0.25SM -RA BR BKN012 OVC018 16/15 A2979 RMK AO2 P0004 T01560150

Show more